Time;durP1;ratioP1;P1;durP2;ratioP2;P2;SDS_P1;SDS_P2;PMS_P1;PMS_P2;Temp;Humidity;BMP_temperature;BMP_pressure;BME280_temperature;BME280_humidity;BME280_pressure;Samples;Min_cycle;Max_cycle;Signal;HPM_P1;HPM_P2
2021/07/16 00:00:40;;;;;;;8.50;6.18;;;;;;;-145.12;100.00;63763.75;342304;28;161469;-65
2021/07/16 00:01:51;;;;;;;10.95;5.85;;;;;;;-145.12;100.00;63763.75;341594;28;137236;-64
2021/07/16 00:03:04;;;;;;;9.40;5.95;;;;;;;-145.12;100.00;63763.75;341653;28;138118;-71
2021/07/16 00:04:15;;;;;;;8.55;5.80;;;;;;;-145.12;100.00;63763.75;340523;28;138339;-68
2021/07/16 00:05:27;;;;;;;8.75;5.97;;;;;;;-145.12;100.00;63763.75;340348;28;136411;-65
2021/07/16 00:06:38;;;;;;;9.70;6.18;;;;;;;-145.12;100.00;63763.75;340258;28;137401;-65
2021/07/16 00:07:49;;;;;;;9.73;6.38;;;;;;;-145.12;100.00;63763.75;343442;28;137039;-71
2021/07/16 00:09:01;;;;;;;8.60;5.92;;;;;;;-145.12;100.00;63763.75;343515;28;160287;-65
2021/07/16 00:10:14;;;;;;;9.80;6.43;;;;;;;-145.12;100.00;63763.75;344441;28;137243;-71
2021/07/16 00:11:26;;;;;;;8.52;6.07;;;;;;;-145.12;100.00;63763.75;342981;28;136629;-65
2021/07/16 00:12:38;;;;;;;10.60;6.47;;;;;;;-145.12;100.00;63763.75;343042;28;137883;-64
2021/07/16 00:13:50;;;;;;;11.88;6.30;;;;;;;-145.12;100.00;63763.75;341678;28;137022;-64
2021/07/16 00:15:03;;;;;;;8.30;5.90;;;;;;;-145.12;100.00;63763.75;341842;28;138230;-67
2021/07/16 00:16:15;;;;;;;9.23;6.00;;;;;;;-145.12;100.00;63763.75;341738;28;138458;-69
2021/07/16 00:17:26;;;;;;;9.23;6.13;;;;;;;-145.12;100.00;63763.75;341775;28;137340;-65
2021/07/16 00:18:38;;;;;;;10.48;6.50;;;;;;;-145.12;100.00;63763.75;341884;28;137183;-64
2021/07/16 00:19:49;;;;;;;10.60;5.95;;;;;;;-145.12;100.00;63763.75;341667;28;136940;-62
2021/07/16 00:21:03;;;;;;;11.75;6.45;;;;;;;-145.12;100.00;63763.75;341757;28;136495;-67
2021/07/16 00:22:15;;;;;;;8.80;6.47;;;;;;;-145.12;100.00;63763.75;341774;28;137598;-63
2021/07/16 00:23:26;;;;;;;10.85;6.40;;;;;;;-145.12;100.00;63763.75;342128;28;136405;-62
2021/07/16 00:24:37;;;;;;;10.85;6.65;;;;;;;-145.12;100.00;63763.75;341566;28;137688;-64
2021/07/16 00:25:48;;;;;;;9.00;6.03;;;;;;;-145.12;100.00;63763.75;341669;28;138127;-67
2021/07/16 00:27:01;;;;;;;8.55;6.47;;;;;;;-145.12;100.00;63763.75;341855;28;136467;-64
2021/07/16 00:28:12;;;;;;;10.23;6.40;;;;;;;-145.12;100.00;63763.75;342367;28;159952;-68
2021/07/16 00:29:28;;;;;;;9.40;6.00;;;;;;;-145.12;100.00;63763.75;342899;28;137236;-67
2021/07/16 00:30:42;;;;;;;8.60;6.20;;;;;;;-145.12;100.00;63763.75;341758;28;138213;-64
2021/07/16 00:31:53;;;;;;;9.48;6.43;;;;;;;-145.12;100.00;63763.75;341675;28;137331;-64
2021/07/16 00:33:06;;;;;;;9.52;6.45;;;;;;;-145.12;100.00;63763.75;341788;28;136459;-65
2021/07/16 00:34:17;;;;;;;9.40;6.18;;;;;;;-145.12;100.00;63763.75;340909;28;161243;-66
2021/07/16 00:35:29;;;;;;;9.93;6.15;;;;;;;-145.12;100.00;63763.75;341533;28;138482;-63
2021/07/16 00:36:40;;;;;;;9.52;6.05;;;;;;;-145.12;100.00;63763.75;341780;28;136999;-66
2021/07/16 00:37:51;;;;;;;7.88;5.88;;;;;;;-145.12;100.00;63763.75;341703;28;138456;-62
2021/07/16 00:39:02;;;;;;;9.43;5.80;;;;;;;-145.12;100.00;63763.75;341821;28;138000;-63
2021/07/16 00:40:13;;;;;;;9.00;6.10;;;;;;;-145.12;100.00;63763.75;340917;28;160238;-65
2021/07/16 00:41:25;;;;;;;7.00;5.70;;;;;;;-145.12;100.00;63763.75;341676;28;138519;-63
2021/07/16 00:42:36;;;;;;;11.20;6.25;;;;;;;-145.12;100.00;63763.75;341792;28;137823;-66
2021/07/16 00:43:50;;;;;;;9.55;6.07;;;;;;;-145.12;100.00;63763.75;340179;28;138652;-65
2021/07/16 00:45:02;;;;;;;8.30;6.10;;;;;;;-145.12;100.00;63763.75;341756;28;137196;-68
2021/07/16 00:46:14;;;;;;;11.57;6.35;;;;;;;-145.12;100.00;63763.75;341716;28;137191;-65
2021/07/16 00:47:25;;;;;;;9.88;6.22;;;;;;;-145.12;100.00;63763.75;341129;28;137489;-63
2021/07/16 00:48:36;;;;;;;8.73;6.10;;;;;;;-145.12;100.00;63763.75;341741;28;136981;-65
2021/07/16 00:49:47;;;;;;;9.10;6.32;;;;;;;-145.12;100.00;63763.75;341797;28;137095;-67
2021/07/16 00:50:59;;;;;;;9.32;5.72;;;;;;;-145.12;100.00;63763.75;341749;28;137010;-63
2021/07/16 00:52:10;;;;;;;9.65;6.13;;;;;;;-145.12;100.00;63763.75;342222;28;136398;-67
2021/07/16 00:53:22;;;;;;;9.30;6.10;;;;;;;-145.12;100.00;63763.75;343097;28;137297;-65
2021/07/16 00:54:33;;;;;;;8.20;5.78;;;;;;;-145.12;100.00;63763.75;343078;28;137267;-63
2021/07/16 00:55:45;;;;;;;8.27;6.00;;;;;;;-145.12;100.00;63763.75;343792;28;161382;-63
2021/07/16 00:56:57;;;;;;;9.43;5.82;;;;;;;-145.12;100.00;63763.75;344315;28;137261;-62
2021/07/16 00:58:08;;;;;;;7.32;5.80;;;;;;;-145.12;100.00;63763.75;344608;28;137836;-73
2021/07/16 00:59:19;;;;;;;8.40;5.80;;;;;;;-145.12;100.00;63763.75;344426;28;138145;-66
2021/07/16 01:00:30;;;;;;;10.18;6.05;;;;;;;-145.12;100.00;63763.75;344400;28;137131;-67
2021/07/16 01:01:45;;;;;;;9.75;5.72;;;;;;;-145.12;100.00;63763.75;344210;28;138215;-67
2021/07/16 01:02:57;;;;;;;9.55;5.80;;;;;;;-145.12;100.00;63763.75;344322;28;137371;-70
2021/07/16 01:04:09;;;;;;;9.63;5.90;;;;;;;-145.12;100.00;63763.75;343610;28;160302;-70
2021/07/16 01:05:22;;;;;;;8.40;5.57;;;;;;;-145.12;100.00;63763.75;343402;28;160380;-68
2021/07/16 01:06:33;;;;;;;9.07;5.80;;;;;;;-145.12;100.00;63763.75;344457;28;137506;-69
2021/07/16 01:07:46;;;;;;;9.25;5.95;;;;;;;-145.12;100.00;63763.75;344447;28;136491;-70
2021/07/16 01:08:57;;;;;;;7.93;5.45;;;;;;;-145.12;100.00;63763.75;341111;28;134763;-72
2021/07/16 01:10:09;;;;;;;7.47;5.30;;;;;;;-145.12;100.00;63763.75;341590;28;136392;-73
2021/07/16 01:11:21;;;;;;;6.93;5.38;;;;;;;-145.12;100.00;63763.75;344659;28;138644;-69
2021/07/16 01:12:32;;;;;;;9.07;5.70;;;;;;;-145.12;100.00;63763.75;345087;28;137380;-72
2021/07/16 01:13:44;;;;;;;9.38;5.72;;;;;;;-145.12;100.00;63763.75;344692;28;137400;-69
2021/07/16 01:14:56;;;;;;;7.55;5.70;;;;;;;-145.12;100.00;63763.75;344439;28;138383;-67
2021/07/16 01:16:09;;;;;;;9.68;5.30;;;;;;;-145.12;100.00;63763.75;344548;28;137690;-70
2021/07/16 01:17:20;;;;;;;9.57;5.30;;;;;;;-145.12;100.00;63763.75;344449;28;138179;-65
2021/07/16 01:18:32;;;;;;;10.35;5.38;;;;;;;-145.12;100.00;63763.75;343420;28;137010;-63
2021/07/16 01:20:00;;;;;;;7.72;5.68;;;;;;;-145.12;100.00;63763.75;343579;28;138203;-63
2021/07/16 01:21:13;;;;;;;8.73;5.38;;;;;;;-145.12;100.00;63763.75;343467;28;136393;-63
2021/07/16 01:22:28;;;;;;;8.73;5.65;;;;;;;-145.12;100.00;63763.75;343054;28;138460;-63
2021/07/16 01:23:41;;;;;;;9.40;5.90;;;;;;;-145.12;100.00;63763.75;343643;28;137228;-62
2021/07/16 01:24:52;;;;;;;8.95;5.68;;;;;;;-145.12;100.00;63763.75;344500;28;137102;-63
2021/07/16 01:26:07;;;;;;;9.15;5.75;;;;;;;-145.12;100.00;63763.75;343114;28;137273;-64
2021/07/16 01:27:19;;;;;;;8.88;5.50;;;;;;;-145.12;100.00;63763.75;343312;28;137110;-63
2021/07/16 01:28:38;;;;;;;8.90;5.43;;;;;;;-145.12;100.00;63763.75;341547;28;160336;-64
2021/07/16 01:29:50;;;;;;;10.48;5.75;;;;;;;-145.12;100.00;63763.75;342023;28;137327;-65
2021/07/16 01:31:04;;;;;;;8.65;5.15;;;;;;;-145.12;100.00;63763.75;341981;28;137042;-63
2021/07/16 01:32:15;;;;;;;8.73;5.68;;;;;;;-145.12;100.00;63763.75;341928;28;137161;-63
2021/07/16 01:33:27;;;;;;;8.60;5.40;;;;;;;-145.12;100.00;63763.75;341678;28;138436;-64
2021/07/16 01:34:38;;;;;;;7.72;4.90;;;;;;;-145.12;100.00;63763.75;344376;28;138332;-63
2021/07/16 01:35:49;;;;;;;10.77;5.50;;;;;;;-145.12;100.00;63763.75;343995;28;160458;-64
2021/07/16 01:37:01;;;;;;;7.40;5.22;;;;;;;-145.12;100.00;63763.75;344956;28;136530;-66
2021/07/16 01:38:13;;;;;;;7.72;5.28;;;;;;;-145.12;100.00;63763.75;344316;28;137275;-63
2021/07/16 01:39:25;;;;;;;9.73;5.40;;;;;;;-145.12;100.00;63763.75;344507;28;138410;-66
2021/07/16 01:40:37;;;;;;;9.00;5.57;;;;;;;-145.12;100.00;63763.75;344681;28;138569;-63
2021/07/16 01:41:48;;;;;;;9.43;5.63;;;;;;;-145.12;100.00;63763.75;344578;28;138267;-63
2021/07/16 01:43:02;;;;;;;7.78;5.03;;;;;;;-145.12;100.00;63763.75;344622;28;138478;-62
2021/07/16 01:44:13;;;;;;;9.25;4.88;;;;;;;-145.12;100.00;63763.75;344673;28;137111;-63
2021/07/16 01:45:26;;;;;;;7.78;5.10;;;;;;;-145.12;100.00;63763.75;342464;28;161396;-63
2021/07/16 01:46:39;;;;;;;8.73;5.35;;;;;;;-145.12;100.00;63763.75;343390;28;138433;-69
2021/07/16 01:47:57;;;;;;;8.30;5.28;;;;;;;-145.12;100.00;63763.75;343241;28;137290;-65
2021/07/16 01:49:09;;;;;;;8.27;5.10;;;;;;;-145.12;100.00;63763.75;343109;28;138293;-63
2021/07/16 01:50:21;;;;;;;7.88;5.07;;;;;;;-145.12;100.00;63763.75;341762;28;138667;-63
2021/07/16 01:51:33;;;;;;;8.50;5.10;;;;;;;-145.12;100.00;63763.75;342113;28;136990;-66
2021/07/16 01:52:45;;;;;;;8.90;5.40;;;;;;;-145.12;100.00;63763.75;342059;28;138301;-63
2021/07/16 01:53:59;;;;;;;8.40;5.03;;;;;;;-145.12;100.00;63763.75;343349;28;137137;-67
2021/07/16 01:55:12;;;;;;;7.84;5.16;;;;;;;-145.12;100.00;63763.75;342675;28;159693;-63
2021/07/16 01:56:24;;;;;;;8.50;4.97;;;;;;;-145.12;100.00;63763.75;343069;28;138564;-63
2021/07/16 01:57:35;;;;;;;8.43;4.85;;;;;;;-145.12;100.00;63763.75;343339;28;137281;-67
2021/07/16 01:58:51;;;;;;;7.18;5.07;;;;;;;-145.12;100.00;63763.75;343190;28;137307;-63
2021/07/16 02:00:08;;;;;;;8.82;4.95;;;;;;;-145.12;100.00;63763.75;343329;28;138357;-63
2021/07/16 02:01:24;;;;;;;7.97;5.22;;;;;;;-145.12;100.00;63763.75;343341;28;137277;-64
2021/07/16 02:02:44;;;;;;;7.53;5.10;;;;;;;-145.12;100.00;63763.75;343297;28;136982;-63
2021/07/16 02:03:56;;;;;;;10.20;5.38;;;;;;;-145.12;100.00;63763.75;343185;28;137095;-66
2021/07/16 02:05:09;;;;;;;8.40;5.18;;;;;;;-145.12;100.00;63763.75;340598;28;137233;-62
2021/07/16 02:06:20;;;;;;;9.28;5.04;;;;;;;-145.12;100.00;63763.75;339702;28;160298;-63
2021/07/16 02:07:33;;;;;;;8.90;5.35;;;;;;;-145.12;100.00;63763.75;340540;28;138344;-64
2021/07/16 02:08:46;;;;;;;9.38;4.70;;;;;;;-145.12;100.00;63763.75;340367;28;138378;-64
2021/07/16 02:09:58;;;;;;;9.35;5.10;;;;;;;-145.12;100.00;63763.75;340018;28;138236;-65
2021/07/16 02:11:09;;;;;;;9.32;4.93;;;;;;;-145.12;100.00;63763.75;340387;28;138245;-64
2021/07/16 02:12:20;;;;;;;8.98;4.63;;;;;;;-145.12;100.00;63763.75;340470;28;136579;-63
2021/07/16 02:13:31;;;;;;;7.65;4.90;;;;;;;-145.12;100.00;63763.75;340406;28;138391;-63
2021/07/16 02:14:42;;;;;;;7.03;4.80;;;;;;;-145.12;100.00;63763.75;339008;28;137070;-63
2021/07/16 02:15:54;;;;;;;8.88;4.95;;;;;;;-145.12;100.00;63763.75;339078;28;137045;-67
2021/07/16 02:17:06;;;;;;;8.50;5.13;;;;;;;-145.12;100.00;63763.75;339125;28;136482;-68
2021/07/16 02:18:18;;;;;;;8.60;4.60;;;;;;;-145.12;100.00;63763.75;339030;28;137925;-64
2021/07/16 02:19:33;;;;;;;7.65;4.90;;;;;;;-145.12;100.00;63763.75;338206;28;160580;-65
2021/07/16 02:20:45;;;;;;;8.52;4.95;;;;;;;-145.12;100.00;63763.75;338638;28;159477;-63
2021/07/16 02:21:56;;;;;;;7.97;4.88;;;;;;;-145.12;100.00;63763.75;340177;28;138515;-63
2021/07/16 02:23:09;;;;;;;8.15;4.60;;;;;;;-145.12;100.00;63763.75;340457;28;138477;-63
2021/07/16 02:24:22;;;;;;;9.35;4.50;;;;;;;-145.12;100.00;63763.75;340194;28;137108;-66
2021/07/16 02:25:33;;;;;;;7.78;4.70;;;;;;;-145.12;100.00;63763.75;343326;28;137189;-66
2021/07/16 02:26:44;;;;;;;9.13;5.00;;;;;;;-145.12;100.00;63763.75;343136;28;136993;-64
2021/07/16 02:27:57;;;;;;;7.80;4.78;;;;;;;-145.12;100.00;63763.75;343243;28;138342;-67
2021/07/16 02:29:13;;;;;;;7.18;4.60;;;;;;;-145.12;100.00;63763.75;343134;28;138440;-64
2021/07/16 02:30:25;;;;;;;7.63;4.60;;;;;;;-145.12;100.00;63763.75;343021;28;137056;-63
2021/07/16 02:31:36;;;;;;;7.78;4.70;;;;;;;-145.12;100.00;63763.75;342408;28;161278;-67
2021/07/16 02:32:48;;;;;;;6.47;4.80;;;;;;;-145.12;100.00;63763.75;343282;28;137296;-63
2021/07/16 02:33:59;;;;;;;10.00;5.15;;;;;;;-145.12;100.00;63763.75;342378;28;160179;-64
2021/07/16 02:35:11;;;;;;;6.78;4.60;;;;;;;-145.12;100.00;63763.75;343213;28;137105;-66
2021/07/16 02:36:23;;;;;;;7.55;4.28;;;;;;;-145.12;100.00;63763.75;343250;28;137249;-66
2021/07/16 02:37:35;;;;;;;8.05;4.50;;;;;;;-145.12;100.00;63763.75;343250;28;136438;-63
2021/07/16 02:38:46;;;;;;;6.78;4.40;;;;;;;-145.12;100.00;63763.75;343323;28;137522;-70
2021/07/16 02:39:57;;;;;;;7.85;4.70;;;;;;;-145.12;100.00;63763.75;343178;28;137390;-70
2021/07/16 02:41:10;;;;;;;5.93;4.60;;;;;;;-145.12;100.00;63763.75;343286;28;138393;-70
2021/07/16 02:42:21;;;;;;;8.07;4.50;;;;;;;-145.12;100.00;63763.75;343264;28;137238;-63
2021/07/16 02:43:35;;;;;;;8.05;4.55;;;;;;;-145.12;100.00;63763.75;343162;28;137316;-71
2021/07/16 02:44:46;;;;;;;8.75;4.72;;;;;;;-145.12;100.00;63763.75;343252;28;138124;-69
2021/07/16 02:45:57;;;;;;;8.02;4.20;;;;;;;-145.12;100.00;63763.75;343123;28;137792;-66
2021/07/16 02:47:09;;;;;;;9.73;4.70;;;;;;;-145.12;100.00;63763.75;344575;28;137206;-69
2021/07/16 02:48:20;;;;;;;7.80;4.47;;;;;;;-145.12;100.00;63763.75;344545;28;137293;-70
2021/07/16 02:49:31;;;;;;;7.15;4.35;;;;;;;-145.12;100.00;63763.75;342410;28;161743;-66
2021/07/16 02:50:44;;;;;;;8.95;4.60;;;;;;;-145.12;100.00;63763.75;344520;28;137105;-71
2021/07/16 02:51:57;;;;;;;8.32;4.30;;;;;;;-145.12;100.00;63763.75;344162;28;138838;-63
2021/07/16 02:53:09;;;;;;;6.82;4.40;;;;;;;-145.12;100.00;63763.75;343329;28;138530;-66
2021/07/16 02:54:20;;;;;;;7.82;4.50;;;;;;;-145.12;100.00;63763.75;343067;28;138326;-64
2021/07/16 02:55:32;;;;;;;7.82;4.57;;;;;;;-145.12;100.00;63763.75;344644;28;137256;-70
2021/07/16 02:56:43;;;;;;;6.00;4.65;;;;;;;-145.12;100.00;63763.75;344607;28;136883;-65
2021/07/16 02:57:54;;;;;;;7.75;4.53;;;;;;;-145.12;100.00;63763.75;344641;28;137389;-70
2021/07/16 02:59:06;;;;;;;7.90;4.75;;;;;;;-145.12;100.00;63763.75;344528;28;137260;-63
2021/07/16 03:00:19;;;;;;;7.97;4.05;;;;;;;-145.12;100.00;63763.75;344413;28;138628;-70
2021/07/16 03:01:30;;;;;;;10.07;4.78;;;;;;;-145.12;100.00;63763.75;344560;28;137426;-67
2021/07/16 03:02:54;;;;;;;11.20;4.53;;;;;;;-145.12;100.00;63763.75;344558;28;138317;-63
2021/07/16 03:04:06;;;;;;;7.60;4.43;;;;;;;-145.12;100.00;63763.75;342342;28;160885;-64
2021/07/16 03:05:19;;;;;;;8.10;4.38;;;;;;;-145.12;100.00;63763.75;343075;28;137503;-64
2021/07/16 03:06:31;;;;;;;9.15;4.63;;;;;;;-145.12;100.00;63763.75;343081;28;138165;-73
2021/07/16 03:07:42;;;;;;;8.35;4.65;;;;;;;-145.12;100.00;63763.75;343234;28;138550;-70
2021/07/16 03:08:54;;;;;;;8.43;4.40;;;;;;;-145.12;100.00;63763.75;342925;28;138456;-70
2021/07/16 03:10:07;;;;;;;8.52;4.38;;;;;;;-145.12;100.00;63763.75;343229;28;137211;-65
2021/07/16 03:11:22;;;;;;;7.60;4.38;;;;;;;-145.12;100.00;63763.75;343251;28;137210;-70
2021/07/16 03:12:35;;;;;;;7.88;4.72;;;;;;;-145.12;100.00;63763.75;343253;28;137901;-63
2021/07/16 03:13:47;;;;;;;9.20;4.68;;;;;;;-145.12;100.00;63763.75;343211;28;138325;-71
2021/07/16 03:14:58;;;;;;;8.10;4.40;;;;;;;-145.12;100.00;63763.75;343069;28;137349;-71
2021/07/16 03:16:11;;;;;;;7.78;4.78;;;;;;;-145.12;100.00;63763.75;343044;28;137304;-66
2021/07/16 03:17:22;;;;;;;8.52;4.85;;;;;;;-145.12;100.00;63763.75;343459;28;137259;-69
2021/07/16 03:18:33;;;;;;;8.90;4.40;;;;;;;-145.12;100.00;63763.75;341635;28;137755;-66
2021/07/16 03:19:44;;;;;;;7.38;4.28;;;;;;;-145.12;100.00;63763.75;343353;28;136431;-65
2021/07/16 03:20:56;;;;;;;7.47;4.20;;;;;;;-145.12;100.00;63763.75;343036;28;138330;-65
2021/07/16 03:22:07;;;;;;;8.25;4.55;;;;;;;-145.12;100.00;63763.75;343542;28;138084;-71
2021/07/16 03:23:18;;;;;;;7.93;4.30;;;;;;;-145.12;100.00;63763.75;343512;28;161252;-67
2021/07/16 03:24:29;;;;;;;8.43;4.47;;;;;;;-145.12;100.00;63763.75;343022;28;137953;-64
2021/07/16 03:25:41;;;;;;;8.60;4.15;;;;;;;-145.12;100.00;63763.75;343068;28;138283;-68
2021/07/16 03:26:52;;;;;;;7.72;4.00;;;;;;;-145.12;100.00;63763.75;344582;28;137926;-65
2021/07/16 03:28:04;;;;;;;8.75;4.35;;;;;;;-145.12;100.00;63763.75;343694;28;159942;-64
2021/07/16 03:29:15;;;;;;;8.30;4.32;;;;;;;-145.12;100.00;63763.75;342911;28;137149;-67
2021/07/16 03:30:27;;;;;;;6.38;3.90;;;;;;;-145.12;100.00;63763.75;340877;28;159884;-64
2021/07/16 03:31:39;;;;;;;7.40;4.30;;;;;;;-145.12;100.00;63763.75;342994;28;137322;-71
2021/07/16 03:32:51;;;;;;;9.40;4.20;;;;;;;-145.12;100.00;63763.75;344373;28;137350;-63
2021/07/16 03:34:02;;;;;;;8.20;4.35;;;;;;;-145.12;100.00;63763.75;344419;28;138430;-65
2021/07/16 03:35:14;;;;;;;6.80;4.47;;;;;;;-145.12;100.00;63763.75;344423;28;138442;-66
2021/07/16 03:36:25;;;;;;;9.00;4.78;;;;;;;-145.12;100.00;63763.75;342993;28;137257;-75
2021/07/16 03:37:37;;;;;;;8.88;4.60;;;;;;;-145.12;100.00;63763.75;342979;28;137338;-64
2021/07/16 03:38:51;;;;;;;9.07;4.82;;;;;;;-145.12;100.00;63763.75;342992;28;137098;-64
2021/07/16 03:40:04;;;;;;;10.43;5.03;;;;;;;-145.12;100.00;63763.75;345926;28;137264;-64
2021/07/16 03:41:16;;;;;;;9.60;4.72;;;;;;;-145.12;100.00;63763.75;344214;28;137033;-64
2021/07/16 03:42:28;;;;;;;9.05;4.75;;;;;;;-145.12;100.00;63763.75;344511;28;138024;-64
2021/07/16 03:43:39;;;;;;;8.00;4.40;;;;;;;-145.12;100.00;63763.75;344500;28;136977;-66
2021/07/16 03:44:50;;;;;;;6.76;4.46;;;;;;;-145.12;100.00;63763.75;343642;28;160942;-70
2021/07/16 03:46:02;;;;;;;7.28;4.43;;;;;;;-145.12;100.00;63763.75;344729;28;136517;-68
2021/07/16 03:47:14;;;;;;;8.90;4.70;;;;;;;-145.12;100.00;63763.75;343061;28;138397;-65
2021/07/16 03:48:26;;;;;;;10.25;4.97;;;;;;;-145.12;100.00;63763.75;343060;28;136492;-68
2021/07/16 03:49:39;;;;;;;8.90;4.38;;;;;;;-145.12;100.00;63763.75;342463;28;160169;-64
2021/07/16 03:50:51;;;;;;;8.00;4.22;;;;;;;-145.12;100.00;63763.75;343047;28;136513;-65
2021/07/16 03:52:02;;;;;;;6.88;4.10;;;;;;;-145.12;100.00;63763.75;344583;28;136468;-65
2021/07/16 03:53:14;;;;;;;7.90;3.95;;;;;;;-145.12;100.00;63763.75;343614;28;161390;-65
2021/07/16 03:54:25;;;;;;;8.35;4.05;;;;;;;-145.12;100.00;63763.75;344348;28;136496;-64
2021/07/16 03:55:36;;;;;;;9.02;3.90;;;;;;;-145.12;100.00;63763.75;344499;28;136505;-66
2021/07/16 03:56:48;;;;;;;8.13;4.05;;;;;;;-145.12;100.00;63763.75;344546;28;135381;-66
2021/07/16 03:57:59;;;;;;;7.50;4.00;;;;;;;-145.12;100.00;63763.75;345906;28;137253;-64
2021/07/16 03:59:11;;;;;;;8.02;4.03;;;;;;;-145.12;100.00;63763.75;343630;28;159402;-64
2021/07/16 04:00:26;;;;;;;8.40;3.78;;;;;;;-145.12;100.00;63763.75;344136;28;138258;-71
2021/07/16 04:01:37;;;;;;;6.93;3.65;;;;;;;-145.12;100.00;63763.75;345821;28;137085;-68
2021/07/16 04:02:48;;;;;;;7.60;3.50;;;;;;;-145.12;100.00;63763.75;345787;28;138391;-68
2021/07/16 04:04:01;;;;;;;7.40;3.90;;;;;;;-145.12;100.00;63763.75;345635;28;138483;-67
2021/07/16 04:05:13;;;;;;;9.55;4.22;;;;;;;-145.12;100.00;63763.75;345922;28;137267;-74
2021/07/16 04:06:24;;;;;;;6.18;3.65;;;;;;;-145.12;100.00;63763.75;345863;28;137093;-65
2021/07/16 04:07:41;;;;;;;6.78;3.90;;;;;;;-145.12;100.00;63763.75;344400;28;138236;-69
2021/07/16 04:09:00;;;;;;;6.53;3.78;;;;;;;-145.12;100.00;63763.75;344362;28;137205;-73
2021/07/16 04:10:15;;;;;;;7.53;3.75;;;;;;;-145.12;100.00;63763.75;344501;28;137052;-64
2021/07/16 04:11:26;;;;;;;7.32;3.95;;;;;;;-145.12;100.00;63763.75;344434;28;137191;-65
2021/07/16 04:12:37;;;;;;;6.97;3.67;;;;;;;-145.12;100.00;63763.75;344582;28;136496;-62
2021/07/16 04:13:55;;;;;;;7.47;3.88;;;;;;;-145.12;100.00;63763.75;344682;28;138443;-64
2021/07/16 04:15:07;;;;;;;7.32;3.72;;;;;;;-145.12;100.00;63763.75;344345;28;137072;-69
2021/07/16 04:16:18;;;;;;;7.75;3.80;;;;;;;-145.12;100.00;63763.75;344555;28;137221;-65
2021/07/16 04:17:30;;;;;;;8.00;3.80;;;;;;;-145.12;100.00;63763.75;342956;28;137259;-71
2021/07/16 04:18:41;;;;;;;8.65;4.03;;;;;;;-145.12;100.00;63763.75;342333;28;160222;-68
2021/07/16 04:19:52;;;;;;;6.40;4.03;;;;;;;-145.12;100.00;63763.75;344370;28;138178;-66
2021/07/16 04:21:04;;;;;;;7.00;3.90;;;;;;;-145.12;100.00;63763.75;344279;28;138224;-69
2021/07/16 04:22:17;;;;;;;7.30;4.10;;;;;;;-145.12;100.00;63763.75;344232;28;137089;-64
2021/07/16 04:23:28;;;;;;;7.20;4.13;;;;;;;-145.12;100.00;63763.75;344458;28;137266;-65
2021/07/16 04:24:40;;;;;;;9.07;4.18;;;;;;;-145.12;100.00;63763.75;343699;28;160934;-64
2021/07/16 04:25:51;;;;;;;8.02;3.67;;;;;;;-145.12;100.00;63763.75;344390;28;137158;-62
2021/07/16 04:27:03;;;;;;;6.57;3.92;;;;;;;-145.12;100.00;63763.75;344370;28;138456;-64
2021/07/16 04:28:14;;;;;;;9.98;4.68;;;;;;;-145.12;100.00;63763.75;344536;28;137186;-64
2021/07/16 04:29:25;;;;;;;9.93;4.07;;;;;;;-145.12;100.00;63763.75;342169;28;137393;-66
2021/07/16 04:30:37;;;;;;;8.30;3.92;;;;;;;-145.12;100.00;63763.75;343280;28;137159;-66
2021/07/16 04:31:49;;;;;;;10.85;4.20;;;;;;;-145.12;100.00;63763.75;342883;28;137187;-64
2021/07/16 04:33:02;;;;;;;9.07;4.30;;;;;;;-145.12;100.00;63763.75;342870;28;137369;-71
2021/07/16 04:34:13;;;;;;;10.85;4.45;;;;;;;-145.12;100.00;63763.75;343102;28;137408;-63
2021/07/16 04:35:27;;;;;;;9.82;4.22;;;;;;;-145.12;100.00;63763.75;343068;28;137352;-64
2021/07/16 04:36:38;;;;;;;8.85;4.40;;;;;;;-145.12;100.00;63763.75;343163;28;137309;-62
2021/07/16 04:37:50;;;;;;;8.90;4.45;;;;;;;-145.12;100.00;63763.75;343274;28;138589;-72
2021/07/16 04:39:01;;;;;;;10.70;4.30;;;;;;;-145.12;100.00;63763.75;342289;28;160864;-64
2021/07/16 04:40:15;;;;;;;11.90;4.30;;;;;;;-145.12;100.00;63763.75;343090;28;136410;-65
2021/07/16 04:41:26;;;;;;;11.75;4.20;;;;;;;-145.12;100.00;63763.75;343055;28;138214;-62
2021/07/16 04:42:38;;;;;;;7.72;4.57;;;;;;;-145.12;100.00;63763.75;343019;28;138307;-70
2021/07/16 04:43:50;;;;;;;8.75;4.60;;;;;;;-145.12;100.00;63763.75;343096;28;137279;-63
2021/07/16 04:45:01;;;;;;;8.25;4.28;;;;;;;-145.12;100.00;63763.75;342071;28;160961;-70
2021/07/16 04:46:12;;;;;;;7.82;3.70;;;;;;;-145.12;100.00;63763.75;342454;28;160263;-66
2021/07/16 04:47:23;;;;;;;8.07;4.07;;;;;;;-145.12;100.00;63763.75;343036;28;138117;-71
2021/07/16 04:48:35;;;;;;;6.72;4.05;;;;;;;-145.12;100.00;63763.75;343243;28;138294;-62
2021/07/16 04:49:46;;;;;;;7.13;4.15;;;;;;;-145.12;100.00;63763.75;343408;28;137028;-64
2021/07/16 04:50:57;;;;;;;9.95;4.15;;;;;;;-145.12;100.00;63763.75;343220;28;137227;-63
2021/07/16 04:52:08;;;;;;;8.00;3.92;;;;;;;-145.12;100.00;63763.75;343189;28;138410;-69
2021/07/16 04:53:19;;;;;;;10.32;4.40;;;;;;;-145.12;100.00;63763.75;343294;28;138421;-63
2021/07/16 04:54:30;;;;;;;8.78;4.24;;;;;;;-145.12;100.00;63763.75;342307;28;161692;-63
2021/07/16 04:55:42;;;;;;;9.52;3.90;;;;;;;-145.12;100.00;63763.75;342198;28;136440;-66
2021/07/16 04:56:53;;;;;;;9.90;4.48;;;;;;;-145.12;100.00;63763.75;342513;28;159965;-64
2021/07/16 04:58:08;;;;;;;7.85;4.20;;;;;;;-145.12;100.00;63763.75;343447;28;136463;-68
2021/07/16 04:59:20;;;;;;;7.90;4.25;;;;;;;-145.12;100.00;63763.75;344771;28;138900;-69
2021/07/16 05:00:31;;;;;;;10.20;4.50;;;;;;;-145.12;100.00;63763.75;344588;28;137850;-69
2021/07/16 05:01:42;;;;;;;8.82;4.57;;;;;;;-145.12;100.00;63763.75;341224;28;160078;-67
2021/07/16 05:02:54;;;;;;;9.63;4.47;;;;;;;-145.12;100.00;63763.75;341878;28;137121;-62
2021/07/16 05:04:05;;;;;;;9.68;4.70;;;;;;;-145.12;100.00;63763.75;344223;28;160422;-65
2021/07/16 05:05:17;;;;;;;7.43;4.57;;;;;;;-145.12;100.00;63763.75;344892;28;137285;-63
2021/07/16 05:06:28;;;;;;;8.82;4.63;;;;;;;-145.12;100.00;63763.75;344585;28;137226;-63
2021/07/16 05:07:39;;;;;;;9.30;4.65;;;;;;;-145.12;100.00;63763.75;344822;28;138197;-63
2021/07/16 05:08:51;;;;;;;10.52;4.40;;;;;;;-145.12;100.00;63763.75;344010;28;161013;-62
2021/07/16 05:10:03;;;;;;;11.20;4.47;;;;;;;-145.12;100.00;63763.75;344770;28;137779;-63
2021/07/16 05:11:16;;;;;;;10.30;4.50;;;;;;;-145.12;100.00;63763.75;344787;28;138063;-68
2021/07/16 05:12:27;;;;;;;9.02;4.47;;;;;;;-145.12;100.00;63763.75;344639;28;138368;-63
2021/07/16 05:13:39;;;;;;;8.30;4.72;;;;;;;-145.12;100.00;63763.75;344876;28;137229;-64
2021/07/16 05:14:50;;;;;;;7.75;4.38;;;;;;;-145.12;100.00;63763.75;345986;28;138079;-63
2021/07/16 05:16:03;;;;;;;7.38;4.25;;;;;;;-145.12;100.00;63763.75;346064;28;137461;-62
2021/07/16 05:17:15;;;;;;;8.43;4.30;;;;;;;-145.12;100.00;63763.75;344875;28;137538;-65
2021/07/16 05:18:26;;;;;;;8.20;4.28;;;;;;;-145.12;100.00;63763.75;343931;28;160387;-63
2021/07/16 05:19:38;;;;;;;9.90;4.47;;;;;;;-145.12;100.00;63763.75;344752;28;136435;-67
2021/07/16 05:20:49;;;;;;;12.02;4.43;;;;;;;-145.12;100.00;63763.75;342108;28;137392;-62
2021/07/16 05:22:01;;;;;;;9.68;4.40;;;;;;;-145.12;100.00;63763.75;343005;28;137446;-66
2021/07/16 05:23:12;;;;;;;12.90;4.28;;;;;;;-145.12;100.00;63763.75;341881;28;137126;-62
2021/07/16 05:24:24;;;;;;;9.35;4.50;;;;;;;-145.12;100.00;63763.75;341834;28;136873;-62
2021/07/16 05:25:35;;;;;;;9.10;4.30;;;;;;;-145.12;100.00;63763.75;342075;28;136442;-63
2021/07/16 05:26:46;;;;;;;8.93;4.25;;;;;;;-145.12;100.00;63763.75;342227;28;138499;-62
2021/07/16 05:27:58;;;;;;;9.73;4.38;;;;;;;-145.12;100.00;63763.75;343347;28;137144;-64